Archiv-/Tagesdaten

--Timestamp---	Temp	Chill	HIndex	Humid	Dewpt	 Wind 	HiWind	WindDir	Rain 	Barom	Solar	 ET  	 UV 
--------------	----	-----	------	-----	-----	------	------	-------	-----	-----	-----	-----	----
20101224 00:00	-0.6	-0.6	-0.6	92	-1.7	2	5	292	0.0	994.8	0	0.000	0.0
20101224 00:05	-0.5	-0.5	-0.5	92	-1.6	0	3	292	0.0	995.1	0	0.000	0.0
20101224 00:10	-0.4	-0.4	-0.4	92	-1.6	0	5	292	0.0	994.9	0	0.000	0.0
20101224 00:15	-0.5	-0.5	-0.5	91	-1.8	2	5	292	0.0	994.9	0	0.000	0.0
20101224 00:20	-0.6	-0.6	-0.6	91	-1.8	3	6	292	0.0	994.7	0	0.000	0.0
20101224 00:25	-0.6	-0.6	-0.6	91	-1.9	5	8	292	0.0	994.7	0	0.000	0.0
20101224 00:30	-0.7	-0.7	-0.7	92	-1.8	5	8	292	0.0	994.9	0	0.000	0.0
20101224 00:35	-0.7	-0.7	-0.7	92	-1.8	5	6	292	0.0	994.8	0	0.000	0.0
20101224 00:40	-0.7	-0.7	-0.7	92	-1.8	3	6	292	0.0	994.7	0	0.000	0.0
20101224 00:45	-0.7	-0.7	-0.7	92	-1.8	5	10	315	0.0	994.4	0	0.000	0.0
20101224 00:50	-0.6	-0.6	-0.6	92	-1.7	0	3	315	0.0	994.6	0	0.000	0.0
20101224 00:55	-0.6	-0.6	-0.6	92	-1.7	2	5	315	0.0	994.6	0	0.000	0.0
20101224 01:00	-0.6	-0.6	-0.6	92	-1.7	2	3	315	0.0	994.7	0	0.000	0.0
20101224 01:05	-0.6	-0.6	-0.6	92	-1.7	0	0	-100000	0.0	994.5	0	0.000	0.0
20101224 01:10	-0.6	-0.6	-0.6	92	-1.7	2	5	315	0.0	994.3	0	0.000	0.0
20101224 01:15	-0.5	-0.5	-0.5	92	-1.6	2	5	315	0.0	994.1	0	0.000	0.0
20101224 01:20	-0.6	-0.6	-0.6	92	-1.7	2	5	315	0.0	994.2	0	0.000	0.0
20101224 01:25	-0.5	-0.5	-0.5	92	-1.6	2	3	315	0.0	994.1	0	0.000	0.0
20101224 01:30	-0.5	-0.5	-0.5	92	-1.6	0	3	315	0.0	994.0	0	0.000	0.0
20101224 01:35	-0.4	-0.4	-0.4	92	-1.6	0	0	-100000	0.0	994.1	0	0.000	0.0
20101224 01:40	-0.4	-0.4	-0.4	92	-1.6	0	3	315	0.0	994.0	0	0.000	0.0
20101224 01:45	-0.4	-0.4	-0.4	92	-1.5	0	3	315	0.0	994.1	0	0.000	0.0
20101224 01:50	-0.3	-0.3	-0.3	92	-1.5	0	0	-100000	0.0	994.2	0	0.000	0.0
20101224 01:55	-0.3	-0.3	-0.3	92	-1.5	0	2	315	0.0	994.2	0	0.000	0.0
20101224 02:00	-0.3	-0.3	-0.3	92	-1.5	2	5	315	0.0	994.1	0	0.000	0.0
20101224 02:05	-0.4	-0.4	-0.4	92	-1.5	5	6	315	0.0	994.1	0	0.000	0.0
20101224 02:10	-0.4	-0.4	-0.4	92	-1.5	3	6	315	0.0	994.1	-100000	0.000	0.0
20101224 02:15	-0.4	-0.4	-0.4	92	-1.6	5	8	315	0.0	994.0	0	0.000	0.0
20101224 02:20	-0.4	-0.4	-0.4	92	-1.6	5	8	292	0.0	993.7	0	0.000	0.0
20101224 02:25	-0.4	-0.4	-0.4	92	-1.6	5	8	292	0.0	993.8	-100000	0.000	0.0
20101224 02:30	-0.5	-0.5	-0.5	92	-1.6	5	8	292	0.0	993.8	0	0.000	0.0
20101224 02:35	-0.5	-0.5	-0.5	92	-1.6	3	8	292	0.0	993.8	0	0.000	0.0
20101224 02:40	-0.5	-0.5	-0.5	92	-1.6	3	5	292	0.0	993.9	0	0.000	0.0
20101224 02:45	-0.4	-0.4	-0.4	92	-1.6	2	5	292	0.0	994.1	0	0.000	0.0
20101224 02:50	-0.4	-0.4	-0.4	93	-1.4	0	5	292	0.0	994.1	0	0.000	0.0
20101224 02:55	-0.4	-0.4	-0.4	93	-1.4	2	5	292	0.0	994.0	0	0.000	0.0
20101224 03:00	-0.4	-0.4	-0.4	93	-1.4	3	5	292	0.0	994.0	0	0.000	0.0
20101224 03:05	-0.4	-0.4	-0.4	93	-1.4	3	6	292	0.0	993.8	0	0.000	0.0
20101224 03:10	-0.4	-2.6	-0.4	93	-1.4	6	10	292	0.0	993.7	0	0.000	0.0
20101224 03:15	-0.4	-0.4	-0.4	93	-1.4	5	8	292	0.0	993.6	0	0.000	0.0
20101224 03:20	-0.3	-0.3	-0.3	93	-1.3	2	5	292	0.0	993.8	0	0.000	0.0
20101224 03:25	-0.3	-0.3	-0.3	93	-1.3	3	6	292	0.0	993.6	0	0.000	0.0
20101224 03:30	-0.3	-0.3	-0.3	93	-1.3	5	6	292	0.0	993.5	0	0.000	0.0
20101224 03:35	-0.3	-0.3	-0.3	93	-1.3	5	8	292	0.0	993.6	0	0.000	0.0
20101224 03:40	-0.3	-2.6	-0.3	93	-1.3	6	10	270	0.0	993.8	0	0.000	0.0
20101224 03:45	-0.4	-0.4	-0.4	93	-1.4	5	8	270	0.0	993.9	0	0.000	0.0
20101224 03:50	-0.3	-0.3	-0.3	93	-1.3	5	8	270	0.0	993.9	0	0.000	0.0
20101224 03:55	-0.3	-0.3	-0.3	93	-1.3	5	6	270	0.0	993.7	0	0.000	0.0
20101224 04:00	-0.3	-0.3	-0.3	93	-1.3	5	11	270	0.0	993.7	0	0.000	0.0
20101224 04:05	-0.3	-2.6	-0.3	93	-1.3	6	14	270	0.0	993.9	0	0.000	0.0
20101224 04:10	-0.3	-2.5	-0.3	93	-1.3	6	13	292	0.0	993.6	0	0.000	0.0
20101224 04:15	-0.3	-2.5	-0.3	93	-1.3	6	13	270	0.0	993.7	0	0.000	0.0
20101224 04:20	-0.3	-0.3	-0.3	93	-1.3	5	14	292	0.0	994.0	0	0.000	0.0
20101224 04:25	-0.3	-2.5	-0.3	93	-1.3	6	10	270	0.0	994.1	0	0.000	0.0
20101224 04:30	-0.3	-2.5	-0.3	93	-1.3	6	14	270	0.0	993.8	0	0.000	0.0
20101224 04:35	-0.3	-0.3	-0.3	93	-1.3	5	11	270	0.0	993.8	0	0.000	0.0
20101224 04:40	-0.3	-3.1	-0.3	93	-1.3	8	11	270	0.0	994.0	0	0.000	0.0
20101224 04:45	-0.4	-3.2	-0.4	93	-1.4	8	16	270	0.0	994.3	0	0.000	0.0
20101224 04:50	-0.4	-3.7	-0.4	93	-1.4	10	16	292	0.0	994.1	0	0.000	0.0
20101224 04:55	-0.4	-2.6	-0.4	93	-1.4	6	11	292	0.0	994.0	0	0.000	0.0
20101224 05:00	-0.4	-2.6	-0.4	93	-1.4	6	14	292	0.0	994.0	0	0.000	0.0
20101224 05:05	-0.4	-3.2	-0.4	93	-1.4	8	14	270	0.0	994.1	0	0.000	0.0
20101224 05:10	-0.4	-3.2	-0.4	93	-1.4	8	16	292	0.0	994.2	0	0.000	0.0
20101224 05:15	-0.3	-4.0	-0.3	93	-1.3	11	18	270	0.0	994.1	0	0.000	0.0
20101224 05:20	-0.3	-4.4	-0.3	93	-1.3	13	21	270	0.0	994.0	0	0.000	0.0
20101224 05:25	-0.3	-4.0	-0.3	93	-1.3	11	23	292	0.0	994.1	0	0.000	0.0
20101224 05:30	-0.3	-4.7	-0.3	93	-1.3	14	23	292	0.0	994.1	0	0.000	0.0
20101224 05:35	-0.3	-4.7	-0.3	93	-1.3	14	23	270	0.0	994.3	0	0.000	0.0
20101224 05:40	-0.3	-3.5	-0.3	93	-1.3	10	23	292	0.0	994.2	0	0.000	0.0
20101224 05:45	-0.3	-3.5	-0.3	93	-1.3	10	21	292	0.0	994.2	0	0.000	0.0
20101224 05:50	-0.3	-3.5	-0.3	93	-1.3	10	18	292	0.0	994.1	0	0.000	0.0
20101224 05:55	-0.2	-3.9	-0.2	93	-1.2	11	19	292	0.0	994.1	0	0.000	0.0
20101224 06:00	-0.2	-3.5	-0.2	93	-1.2	10	19	292	0.0	994.0	0	0.000	0.0
20101224 06:05	-0.2	-3.5	-0.2	93	-1.2	10	21	292	0.0	994.3	0	0.000	0.0
20101224 06:10	-0.2	-2.9	-0.2	93	-1.2	8	18	292	0.0	994.2	0	0.000	0.0
20101224 06:15	-0.2	-3.4	-0.2	93	-1.2	10	19	292	0.0	994.0	0	0.000	0.0
20101224 06:20	-0.2	-3.8	-0.2	93	-1.2	11	23	292	0.0	994.1	0	0.000	0.0
20101224 06:25	-0.2	-3.4	-0.2	93	-1.2	10	16	292	0.0	994.2	0	0.000	0.0
20101224 06:30	-0.2	-3.4	-0.2	93	-1.2	10	21	292	0.0	994.4	0	0.000	0.0
20101224 06:35	-0.2	-3.0	-0.2	93	-1.2	8	19	292	0.0	994.5	0	0.000	0.0
20101224 06:40	-0.2	-3.5	-0.2	93	-1.2	10	19	292	0.0	994.5	0	0.000	0.0
20101224 06:45	-0.2	-2.9	-0.2	93	-1.2	8	18	270	0.0	994.6	0	0.000	0.0
20101224 06:50	-0.2	-3.9	-0.2	93	-1.2	11	23	270	0.0	994.5	0	0.000	0.0
20101224 06:55	-0.2	-3.5	-0.2	93	-1.2	10	19	292	0.0	994.6	0	0.000	0.0
20101224 07:00	-0.2	-3.9	-0.2	93	-1.2	11	19	270	0.0	994.6	0	0.000	0.0
20101224 07:05	-0.2	-3.5	-0.2	93	-1.2	10	14	292	0.0	994.7	0	0.000	0.0
20101224 07:10	-0.2	-3.5	-0.2	93	-1.2	10	16	270	0.0	994.6	0	0.000	0.0
20101224 07:15	-0.3	-4.3	-0.3	93	-1.3	13	19	270	0.0	994.7	0	0.000	0.0
20101224 07:20	-0.3	-3.9	-0.3	93	-1.3	11	19	292	0.0	994.8	0	0.000	0.0
20101224 07:25	-0.3	-3.5	-0.3	93	-1.3	10	16	292	0.0	994.8	0	0.000	0.0
20101224 07:30	-0.2	-3.5	-0.2	93	-1.2	10	16	292	0.0	994.7	0	0.000	0.0
20101224 07:35	-0.2	-3.0	-0.2	93	-1.2	8	14	292	0.0	994.7	0	0.000	0.0
20101224 07:40	-0.2	-3.0	-0.2	93	-1.2	8	14	292	0.0	994.9	0	0.000	0.0
20101224 07:45	-0.2	-2.4	-0.2	93	-1.2	6	10	270	0.0	994.9	0	0.000	0.0
20101224 07:50	-0.2	-2.4	-0.2	93	-1.2	6	10	292	0.0	995.0	0	0.000	0.0
20101224 07:55	-0.2	-2.4	-0.2	94	-1.0	6	10	292	0.0	995.1	0	0.000	0.0
20101224 08:00	-0.2	-2.4	-0.2	94	-1.0	6	16	292	0.0	995.1	0	0.000	0.0
20101224 08:05	-0.2	-2.9	-0.2	94	-1.0	8	19	292	0.0	995.1	0	0.000	0.0
20101224 08:10	-0.2	-3.0	-0.2	94	-1.1	8	16	292	0.0	995.1	0	0.000	0.0
20101224 08:15	-0.3	-3.9	-0.3	94	-1.1	11	23	292	0.0	995.1	0	0.000	0.0
20101224 08:20	-0.3	-3.9	-0.3	94	-1.1	11	19	292	0.0	995.2	0	0.000	0.0
20101224 08:25	-0.3	-3.5	-0.3	94	-1.1	10	19	292	0.0	995.1	0	0.000	0.0
20101224 08:30	-0.3	-3.1	-0.3	94	-1.1	8	19	292	0.0	995.1	0	0.000	0.0
20101224 08:35	-0.3	-3.1	-0.3	94	-1.1	8	14	292	0.0	995.1	0	0.000	0.0
20101224 08:40	-0.2	-3.0	-0.2	94	-1.1	8	16	292	0.0	995.0	0	0.000	0.0
20101224 08:45	-0.2	-3.0	-0.2	94	-1.1	8	18	292	0.0	995.0	0	0.000	0.0
20101224 08:50	-0.2	-3.9	-0.2	94	-1.1	11	23	292	0.0	995.0	5	0.000	0.0
20101224 08:55	-0.3	-3.9	-0.3	94	-1.1	11	21	292	0.0	995.1	7	0.000	0.0
20101224 09:00	-0.3	-3.9	-0.3	94	-1.1	11	21	270	0.0	995.0	10	0.000	0.0
20101224 09:05	-0.3	-3.9	-0.3	94	-1.1	11	21	292	0.0	995.0	11	0.000	0.0
20101224 09:10	-0.3	-4.3	-0.3	94	-1.1	13	23	292	0.0	995.1	12	0.000	0.0
20101224 09:15	-0.3	-4.3	-0.3	94	-1.1	13	19	292	0.0	995.0	14	0.000	0.0
20101224 09:20	-0.3	-3.5	-0.3	94	-1.1	10	19	292	0.0	995.2	13	0.000	0.0
20101224 09:25	-0.3	-4.0	-0.3	94	-1.2	11	26	315	0.0	995.4	19	0.000	0.0
20101224 09:30	-0.3	-3.1	-0.3	94	-1.2	8	18	315	0.0	995.5	18	0.000	0.0
20101224 09:35	-0.4	-3.2	-0.4	94	-1.2	8	18	292	0.0	995.6	20	0.000	0.0
20101224 09:40	-0.3	-3.6	-0.3	94	-1.2	10	19	315	0.0	995.6	20	0.000	0.0
20101224 09:45	-0.3	-3.6	-0.3	94	-1.2	10	19	292	0.0	995.6	23	0.000	0.0
20101224 09:50	-0.3	-2.6	-0.3	94	-1.2	6	16	315	0.0	995.6	20	0.000	0.0
20101224 09:55	-0.3	-4.0	-0.3	94	-1.2	11	19	292	0.0	995.4	23	0.000	0.0
20101224 10:00	-0.3	-3.1	-0.3	94	-1.1	8	18	292	0.0	995.4	27	0.000	0.0
20101224 10:05	-0.3	-3.5	-0.3	93	-1.3	10	19	292	0.0	995.6	30	0.000	0.0
20101224 10:10	-0.3	-3.1	-0.3	93	-1.3	8	16	292	0.0	995.7	-100000	0.000	0.0
20101224 10:15	-0.2	-2.4	-0.2	93	-1.2	6	11	292	0.0	995.7	26	0.000	0.0
20101224 10:20	-0.2	-3.0	-0.2	93	-1.2	8	16	292	0.0	995.8	26	0.000	0.0
20101224 10:25	-0.2	-3.0	-0.2	93	-1.2	8	16	270	0.0	995.9	27	0.000	0.0
20101224 10:30	-0.2	-3.5	-0.2	93	-1.2	10	18	270	0.0	995.9	28	0.000	0.0
20101224 10:35	-0.2	-3.5	-0.2	93	-1.2	10	16	292	0.0	995.9	29	0.000	0.0
20101224 10:40	-0.2	-3.5	-0.2	93	-1.2	10	18	270	0.0	996.1	29	0.000	0.0
20101224 10:45	-0.2	-3.5	-0.2	93	-1.2	10	18	292	0.0	996.2	29	0.000	0.0
20101224 10:50	-0.2	-2.9	-0.2	93	-1.2	8	16	292	0.0	996.2	32	0.000	0.0
20101224 10:55	-0.2	-2.9	-0.2	93	-1.2	8	16	270	0.0	996.2	33	0.000	0.0
20101224 11:00	-0.2	-2.9	-0.2	93	-1.2	8	16	292	0.0	996.2	30	0.025	0.0
20101224 11:05	-0.2	-3.8	-0.2	93	-1.2	11	18	292	0.0	996.2	30	0.000	0.0
20101224 11:10	-0.2	-3.4	-0.2	93	-1.2	10	18	270	0.0	996.2	30	0.000	0.0
20101224 11:15	-0.2	-3.4	-0.2	93	-1.2	10	18	292	0.0	996.2	28	0.000	0.0
20101224 11:20	-0.1	-3.7	-0.1	93	-1.1	11	21	270	0.0	996.2	26	0.000	0.0
20101224 11:25	-0.1	-3.7	-0.1	93	-1.1	11	21	270	0.2	996.2	26	0.000	0.0
20101224 11:30	-0.1	-3.3	-0.1	93	-1.1	10	19	292	0.0	996.3	29	0.000	0.0
20101224 11:35	-0.1	-3.3	-0.1	94	-1.0	10	18	270	0.0	996.3	29	0.000	0.0
20101224 11:40	-0.1	-3.7	-0.1	94	-0.9	11	21	292	0.0	996.3	31	0.000	0.0
20101224 11:45	-0.1	-3.7	-0.1	93	-1.0	11	21	270	0.0	996.4	35	0.000	0.0
20101224 11:50	-0.1	-2.8	-0.1	93	-1.0	8	14	248	0.0	996.4	37	0.000	0.0
20101224 11:55	-0.1	-2.2	-0.1	93	-1.0	6	13	248	0.0	996.5	38	0.000	0.0
20101224 12:00	0.0	-2.7	0.0	93	-1.0	8	16	270	0.0	996.5	39	0.025	0.0
20101224 12:05	0.0	-2.7	0.0	93	-1.0	8	16	292	0.0	996.6	34	0.000	0.0
20101224 12:10	0.0	-2.7	0.0	93	-1.0	8	14	270	0.2	996.7	28	0.000	0.0
20101224 12:15	0.0	-3.2	0.0	93	-1.0	10	18	292	0.0	996.7	28	0.000	0.0
20101224 12:20	0.0	-2.7	0.0	93	-1.0	8	18	270	0.0	996.8	31	0.000	0.0
20101224 12:25	0.0	-2.2	0.0	93	-1.0	6	10	270	0.0	996.8	28	0.000	0.0
20101224 12:30	0.0	-2.7	0.0	93	-1.0	8	13	292	0.0	996.8	36	0.000	0.0
20101224 12:35	0.0	-2.7	0.0	93	-1.0	8	18	248	0.0	996.9	44	0.000	0.0
20101224 12:40	-0.1	-2.8	-0.1	93	-1.0	8	16	248	0.2	996.9	52	0.000	0.0
20101224 12:45	-0.1	-3.3	-0.1	93	-1.0	10	18	270	0.0	996.9	53	0.000	0.0
20101224 12:50	-0.1	-2.8	-0.1	93	-1.0	8	16	248	0.0	996.9	53	0.000	0.0
20101224 12:55	-0.1	-3.3	-0.1	93	-1.0	10	16	270	0.0	997.0	56	0.000	0.0
20101224 13:00	-0.1	-3.3	-0.1	93	-1.0	10	18	248	0.0	997.0	60	0.025	0.0
20101224 13:05	-0.1	-3.7	-0.1	93	-1.1	11	19	270	0.0	997.0	62	0.000	0.0
20101224 13:10	-0.2	-3.8	-0.2	93	-1.2	11	21	270	0.0	997.0	64	0.000	0.0
20101224 13:15	-0.2	-3.8	-0.2	93	-1.2	11	21	270	0.0	997.1	69	0.000	0.0
20101224 13:20	-0.2	-3.9	-0.2	93	-1.2	11	19	270	0.2	997.1	67	0.000	0.0
20101224 13:25	-0.2	-4.6	-0.2	93	-1.2	14	23	292	0.0	997.2	65	0.000	0.0
20101224 13:30	-0.3	-4.3	-0.3	93	-1.3	13	24	292	0.0	997.2	65	0.000	0.0
20101224 13:35	-0.3	-4.6	-0.3	93	-1.3	14	21	270	0.0	997.2	63	0.000	0.0
20101224 13:40	-0.3	-3.9	-0.3	93	-1.3	11	18	270	0.0	997.3	59	0.000	0.0
20101224 13:45	-0.3	-3.9	-0.3	93	-1.3	11	19	292	0.0	997.3	60	0.000	0.0
20101224 13:50	-0.3	-3.9	-0.3	93	-1.3	11	21	270	0.0	997.4	58	0.000	0.0
20101224 13:55	-0.3	-4.3	-0.3	93	-1.3	13	19	292	0.0	997.4	60	0.000	0.0
20101224 14:00	-0.3	-4.0	-0.3	93	-1.3	11	21	292	0.0	997.5	62	0.025	0.0
20101224 14:05	-0.3	-3.9	-0.3	93	-1.3	11	21	292	0.0	997.5	64	0.000	0.0
20101224 14:10	-0.3	-4.4	-0.3	93	-1.3	13	19	270	0.0	997.5	-100000	0.000	0.0
20101224 14:15	-0.3	-3.9	-0.3	93	-1.3	11	18	292	0.2	997.5	56	0.000	0.0
20101224 14:20	-0.3	-3.9	-0.3	93	-1.3	11	19	270	0.0	997.6	57	0.000	0.0
20101224 14:25	-0.3	-4.4	-0.3	93	-1.3	13	19	292	0.0	997.6	53	0.000	0.0
20101224 14:30	-0.3	-4.0	-0.3	93	-1.3	11	19	292	0.0	997.7	51	0.000	0.0
20101224 14:35	-0.3	-3.6	-0.3	93	-1.3	10	21	270	0.0	997.7	51	0.000	0.0
20101224 14:40	-0.3	-4.4	-0.3	93	-1.3	13	18	270	0.0	997.7	43	0.000	0.0
20101224 14:45	-0.3	-3.1	-0.3	93	-1.3	8	14	292	0.0	997.8	44	0.000	0.0
20101224 14:50	-0.3	-2.5	-0.3	93	-1.3	6	16	270	0.2	997.8	45	0.000	0.0
20101224 14:55	-0.3	-3.9	-0.3	93	-1.3	11	19	292	0.0	997.9	41	0.000	0.0
20101224 15:00	-0.3	-4.0	-0.3	93	-1.3	11	21	270	0.0	997.9	45	0.025	0.0
20101224 15:05	-0.4	-4.4	-0.4	93	-1.4	13	21	292	0.0	998.0	41	0.000	0.0
20101224 15:10	-0.4	-5.1	-0.4	93	-1.4	16	23	270	0.0	998.0	39	0.000	0.0
20101224 15:15	-0.5	-4.9	-0.5	92	-1.6	14	26	270	0.0	998.1	35	0.000	0.0
20101224 15:20	-0.5	-5.2	-0.5	92	-1.6	16	23	292	0.0	998.2	31	0.000	0.0
20101224 15:25	-0.5	-4.6	-0.5	92	-1.6	13	24	270	0.0	998.3	27	0.000	0.0
20101224 15:30	-0.5	-4.2	-0.5	92	-1.6	11	21	270	0.0	998.4	23	0.000	0.0
20101224 15:35	-0.5	-4.2	-0.5	92	-1.6	11	21	270	0.0	998.5	20	0.000	0.0
20101224 15:40	-0.5	-4.6	-0.5	92	-1.6	13	23	292	0.0	998.5	18	0.000	0.0
20101224 15:45	-0.5	-4.6	-0.5	92	-1.6	13	19	270	0.0	998.6	15	0.000	0.0
20101224 15:50	-0.5	-4.2	-0.5	92	-1.6	11	18	270	0.0	998.6	13	0.000	0.0
20101224 15:55	-0.5	-4.6	-0.5	92	-1.6	13	23	270	0.0	998.8	11	0.000	0.0
20101224 16:00	-0.5	-3.8	-0.5	92	-1.6	10	18	270	0.0	998.8	10	0.025	0.0
20101224 16:05	-0.5	-3.8	-0.5	92	-1.6	10	18	270	0.0	998.9	8	0.000	0.0
20101224 16:10	-0.4	-3.3	-0.4	92	-1.6	8	16	292	0.0	999.0	5	0.000	0.0
20101224 16:15	-0.4	-4.1	-0.4	92	-1.6	11	21	270	0.0	999.0	2	0.000	0.0
20101224 16:20	-0.5	-4.2	-0.5	92	-1.6	11	18	270	0.0	999.1	0	0.000	0.0
20101224 16:25	-0.5	-4.2	-0.5	92	-1.6	11	23	270	0.0	999.1	0	0.000	0.0
20101224 16:30	-0.5	-4.2	-0.5	92	-1.6	11	21	270	0.0	999.2	0	0.000	0.0
20101224 16:35	-0.5	-3.8	-0.5	92	-1.6	10	19	270	0.0	999.3	0	0.000	0.0
20101224 16:40	-0.5	-4.2	-0.5	92	-1.6	11	19	270	0.0	999.4	0	0.000	0.0
20101224 16:45	-0.5	-4.2	-0.5	92	-1.6	11	19	270	0.0	999.4	0	0.000	0.0
20101224 16:50	-0.5	-4.6	-0.5	92	-1.6	13	24	270	0.0	999.6	0	0.000	0.0
20101224 16:55	-0.5	-4.2	-0.5	92	-1.6	11	19	270	0.0	999.6	0	0.000	0.0
20101224 17:00	-0.5	-3.8	-0.5	92	-1.6	10	19	270	0.0	999.6	0	0.000	0.0
20101224 17:05	-0.5	-4.2	-0.5	92	-1.6	11	21	270	0.0	999.7	0	0.000	0.0
20101224 17:10	-0.5	-4.6	-0.5	92	-1.6	13	23	292	0.0	999.8	0	0.000	0.0
20101224 17:15	-0.6	-5.0	-0.6	92	-1.7	14	21	292	0.0	999.9	0	0.000	0.0
20101224 17:20	-0.5	-4.2	-0.5	92	-1.6	11	19	292	0.0	999.9	0	0.000	0.0
20101224 17:25	-0.6	-4.3	-0.6	92	-1.7	11	18	292	0.0	1000.1	0	0.000	0.0
20101224 17:30	-0.6	-3.4	-0.6	92	-1.7	8	14	292	0.0	1000.1	0	0.000	0.0
20101224 17:35	-0.6	-4.3	-0.6	92	-1.7	11	18	292	0.0	1000.2	0	0.000	0.0
20101224 17:40	-0.7	-4.0	-0.7	92	-1.8	10	16	292	0.0	1000.3	0	0.000	0.0
20101224 17:45	-0.7	-4.1	-0.7	92	-1.9	10	19	292	0.0	1000.4	0	0.000	0.0
20101224 17:50	-0.8	-3.6	-0.8	92	-1.9	8	19	292	0.0	1000.4	0	0.000	0.0
20101224 17:55	-0.8	-4.6	-0.8	92	-2.0	11	19	292	0.0	1000.4	0	0.000	0.0
20101224 18:00	-0.8	-4.6	-0.8	92	-2.0	11	21	292	0.0	1000.6	0	0.000	0.0
20101224 18:05	-0.9	-4.7	-0.9	92	-2.0	11	23	292	0.0	1000.7	0	0.000	0.0
20101224 18:10	-0.9	-4.7	-0.9	92	-2.0	11	21	292	0.0	1000.8	-100000	0.000	0.0
20101224 18:15	-0.9	-4.8	-0.9	91	-2.2	11	24	292	0.0	1000.8	0	0.000	0.0
20101224 18:20	-1.0	-5.2	-1.0	91	-2.3	13	21	292	0.0	1000.8	0	0.000	0.0
20101224 18:25	-1.1	-5.3	-1.1	91	-2.3	13	19	292	0.0	1000.9	0	0.000	0.0
20101224 18:30	-1.1	-4.5	-1.1	91	-2.3	10	23	292	0.0	1001.0	0	0.000	0.0
20101224 18:35	-1.1	-4.5	-1.1	91	-2.3	10	18	292	0.0	1001.1	0	0.000	0.0
20101224 18:40	-1.1	-3.4	-1.1	91	-2.3	6	11	292	0.0	1001.1	0	0.000	0.0
20101224 18:45	-1.1	-4.5	-1.1	91	-2.3	10	18	292	0.0	1001.3	0	0.000	0.0
20101224 18:50	-1.1	-4.0	-1.1	91	-2.3	8	16	292	0.0	1001.4	0	0.000	0.0
20101224 18:55	-1.1	-4.0	-1.1	91	-2.3	8	13	270	0.0	1001.4	0	0.000	0.0
20101224 19:00	-1.1	-4.9	-1.1	92	-2.2	11	16	270	0.0	1001.5	0	0.000	0.0
20101224 19:05	-1.1	-5.7	-1.1	91	-2.4	14	24	292	0.0	1001.6	0	0.000	0.0
20101224 19:10	-1.2	-5.0	-1.2	91	-2.4	11	21	270	0.0	1001.7	0	0.000	0.0
20101224 19:15	-1.2	-5.5	-1.2	91	-2.5	13	19	270	0.0	1001.7	0	0.000	0.0
20101224 19:20	-1.2	-5.8	-1.2	91	-2.5	14	21	270	0.0	1001.7	0	0.000	0.0
20101224 19:25	-1.3	-5.9	-1.3	91	-2.6	14	21	292	0.0	1001.8	0	0.000	0.0
20101224 19:30	-1.3	-5.5	-1.3	91	-2.6	13	26	292	0.0	1001.9	0	0.000	0.0
20101224 19:35	-1.3	-5.5	-1.3	91	-2.6	13	24	292	0.0	1001.9	0	0.000	0.0
20101224 19:40	-1.3	-5.5	-1.3	91	-2.6	13	21	292	0.0	1002.0	0	0.000	0.0
20101224 19:45	-1.3	-5.2	-1.3	91	-2.6	11	18	292	0.0	1002.0	0	0.000	0.0
20101224 19:50	-1.3	-4.7	-1.3	91	-2.6	10	21	292	0.0	1002.1	0	0.000	0.0
20101224 19:55	-1.3	-5.6	-1.3	91	-2.6	13	21	292	0.0	1002.2	0	0.000	0.0
20101224 20:00	-1.3	-5.2	-1.3	91	-2.6	11	23	270	0.0	1002.3	0	0.000	0.0
20101224 20:05	-1.3	-4.8	-1.3	91	-2.6	10	16	292	0.0	1002.3	0	0.000	0.0
20101224 20:10	-1.4	-4.9	-1.4	91	-2.7	10	19	292	0.0	1002.3	0	0.000	0.0
20101224 20:15	-1.4	-5.3	-1.4	91	-2.7	11	24	292	0.0	1002.3	0	0.000	0.0
20101224 20:20	-1.4	-4.9	-1.4	91	-2.7	10	21	292	0.0	1002.6	0	0.000	0.0
20101224 20:25	-1.4	-5.7	-1.4	91	-2.7	13	23	292	0.0	1002.6	0	0.000	0.0
20101224 20:30	-1.5	-5.0	-1.5	91	-2.8	10	19	292	0.0	1002.7	0	0.000	0.0
20101224 20:35	-1.5	-5.4	-1.5	91	-2.8	11	23	292	0.0	1002.8	0	0.000	0.0
20101224 20:40	-1.6	-5.9	-1.6	91	-2.8	13	21	292	0.0	1002.9	0	0.000	0.0
20101224 20:45	-1.6	-5.9	-1.6	90	-3.0	13	23	292	0.0	1002.9	0	0.000	0.0
20101224 20:50	-1.6	-5.6	-1.6	90	-3.0	11	23	292	0.0	1003.0	0	0.000	0.0
20101224 20:55	-1.7	-5.2	-1.7	91	-2.9	10	18	292	0.0	1003.1	0	0.000	0.0
20101224 21:00	-1.7	-6.1	-1.7	90	-3.1	13	19	270	0.0	1003.1	0	0.000	0.0
20101224 21:05	-1.8	-5.8	-1.8	90	-3.2	11	18	292	0.0	1003.2	0	0.000	0.0
20101224 21:10	-1.8	-6.1	-1.8	90	-3.2	13	23	292	0.0	1003.3	0	0.000	0.0
20101224 21:15	-1.8	-5.8	-1.8	90	-3.2	11	19	292	0.0	1003.3	0	0.000	0.0
20101224 21:20	-1.8	-5.8	-1.8	90	-3.3	11	23	292	0.0	1003.4	0	0.000	0.0
20101224 21:25	-1.9	-5.9	-1.9	90	-3.3	11	26	292	0.0	1003.5	0	0.000	0.0
20101224 21:30	-1.9	-5.9	-1.9	90	-3.3	11	21	292	0.0	1003.5	0	0.000	0.0
20101224 21:35	-1.9	-6.0	-1.9	90	-3.4	11	19	270	0.0	1003.7	0	0.000	0.0
20101224 21:40	-1.9	-5.5	-1.9	90	-3.4	10	21	292	0.0	1003.6	0	0.000	0.0
20101224 21:45	-2.0	-5.6	-2.0	90	-3.4	10	19	292	0.0	1003.7	0	0.000	0.0
20101224 21:50	-2.1	-5.1	-2.1	90	-3.5	8	16	270	0.0	1003.8	0	0.000	0.0
20101224 21:55	-2.1	-5.7	-2.1	90	-3.5	10	18	292	0.0	1003.8	0	0.000	0.0
20101224 22:00	-2.1	-6.2	-2.1	90	-3.5	11	18	292	0.0	1003.8	0	0.000	0.0
20101224 22:05	-2.2	-5.8	-2.2	90	-3.6	10	18	292	0.0	1003.9	0	0.000	0.0
20101224 22:10	-2.3	-5.4	-2.3	90	-3.7	8	14	270	0.0	1003.9	0	0.000	0.0
20101224 22:15	-2.3	-6.0	-2.3	90	-3.7	10	16	292	0.0	1003.9	0	0.000	0.0
20101224 22:20	-2.4	-6.5	-2.4	90	-3.8	11	18	292	0.0	1003.9	0	0.000	0.0
20101224 22:25	-2.4	-6.1	-2.4	90	-3.9	10	18	292	0.0	1004.0	0	0.000	0.0
20101224 22:30	-2.4	-6.6	-2.4	90	-3.9	11	18	270	0.0	1004.0	0	0.000	0.0
20101224 22:35	-2.5	-6.6	-2.5	91	-3.8	11	16	292	0.0	1004.1	0	0.000	0.0
20101224 22:40	-2.6	-6.2	-2.6	90	-4.0	10	19	292	0.0	1004.1	0	0.000	0.0
20101224 22:45	-2.6	-6.2	-2.6	90	-4.0	10	18	270	0.0	1004.4	0	0.000	0.0
20101224 22:50	-2.7	-6.8	-2.7	91	-3.9	11	18	292	0.0	1004.4	0	0.000	0.0
20101224 22:55	-2.7	-6.4	-2.7	91	-4.0	10	18	292	0.0	1004.5	0	0.000	0.0
20101224 23:00	-2.7	-6.9	-2.7	91	-4.0	11	19	270	0.0	1004.5	0	0.000	0.0
20101224 23:05	-2.8	-6.5	-2.8	91	-4.0	10	18	292	0.0	1004.6	0	0.000	0.0
20101224 23:10	-2.8	-6.0	-2.8	91	-4.0	8	19	292	0.0	1004.7	0	0.000	0.0
20101224 23:15	-2.8	-6.6	-2.8	90	-4.2	10	18	292	0.0	1004.7	0	0.000	0.0
20101224 23:20	-2.8	-6.1	-2.8	91	-4.1	8	18	292	0.0	1004.8	0	0.000	0.0
20101224 23:25	-2.9	-6.6	-2.9	91	-4.1	10	16	270	0.0	1004.9	0	0.000	0.0
20101224 23:30	-2.9	-6.7	-2.9	91	-4.2	10	16	292	0.0	1004.9	0	0.000	0.0
20101224 23:35	-2.9	-6.7	-2.9	91	-4.2	10	16	292	0.0	1005.1	0	0.000	0.0
20101224 23:40	-3.0	-6.3	-3.0	91	-4.3	8	16	292	0.0	1005.2	0	0.000	0.0
20101224 23:45	-3.1	-6.3	-3.1	90	-4.5	8	14	292	0.0	1005.2	0	0.000	0.0
20101224 23:50	-3.2	-6.5	-3.2	90	-4.6	8	16	292	0.0	1005.2	0	0.000	0.0
20101224 23:55	-3.2	-7.0	-3.2	90	-4.6	10	16	270	0.0	1005.3	0	0.000	0.0



Please note the license to use and transfer of this data:
http://creativecommons.org/licenses/by-nc-sa/3.0/deed.en

Bitte beachten sie die Lizenz zur Verwertung und Weitergabe der Daten:
http://creativecommons.org/licenses/by-nc-sa/3.0/deed.de

zurück zur Übersicht der Archivdaten (Monats und Tagesdaten)

Cookies helfen bei der Bereitstellung von Inhalten. Durch die Nutzung dieser Seiten erklärst du dich damit einverstanden, dass Cookies auf deinem Rechner gespeichert werden. Weitere Information